Time;durP1;ratioP1;P1;durP2;ratioP2;P2;SDS_P1;SDS_P2;PMS_P1;PMS_P2;Temp;Humidity;BMP_temperature;BMP_pressure;BME280_temperature;BME280_humidity;BME280_pressure;Samples;Min_cycle;Max_cycle;Signal;HPM_P1;HPM_P2
2022/11/14 00:00:28;;;;;;;43.57;21.13;;;;;;;3.03;74.91;100683.06;10102570;29;20045;-81
2022/11/14 00:05:49;;;;;;;54.88;25.65;;;;;;;3.27;74.77;100678.44;10107864;29;20049;-80
2022/11/14 00:11:10;;;;;;;52.58;23.50;;;;;;;3.42;74.67;100678.66;10125790;29;20074;-79
2022/11/14 00:16:33;;;;;;;48.28;22.58;;;;;;;3.25;74.11;100679.44;10122594;29;20053;-79
2022/11/14 00:21:54;;;;;;;48.10;22.63;;;;;;;3.06;75.55;100679.41;10115474;29;20124;-78
2022/11/14 00:27:16;;;;;;;46.30;21.55;;;;;;;3.13;75.28;100659.63;10128881;29;20517;-81
2022/11/14 00:32:38;;;;;;;43.10;20.55;;;;;;;3.22;74.19;100656.56;10122317;29;20053;-81
2022/11/14 00:37:59;;;;;;;51.42;23.63;;;;;;;3.16;73.83;100646.22;10122513;29;20057;-79
2022/11/14 00:43:21;;;;;;;51.65;24.15;;;;;;;3.13;73.97;100635.75;10148703;29;20108;-77
2022/11/14 00:48:44;;;;;;;49.97;23.88;;;;;;;3.11;74.31;100642.91;10127913;29;20084;-81
2022/11/14 00:54:05;;;;;;;50.35;24.20;;;;;;;3.07;74.40;100646.63;10142461;29;20049;-78
2022/11/14 00:59:27;;;;;;;61.50;28.38;;;;;;;3.11;74.47;100631.44;10118007;29;20049;-82
2022/11/14 01:04:49;;;;;;;57.63;24.90;;;;;;;3.07;74.44;100630.69;10116522;29;20060;-81
2022/11/14 01:10:11;;;;;;;51.70;24.15;;;;;;;3.16;74.80;100621.47;10117322;29;20507;-81
2022/11/14 01:15:32;;;;;;;51.20;23.00;;;;;;;3.24;74.76;100619.31;10122563;29;20060;-80
2022/11/14 01:20:54;;;;;;;45.92;22.67;;;;;;;3.19;74.46;100611.56;10119730;29;20510;-82
2022/11/14 01:26:16;;;;;;;;;;;;;;;3.05;74.40;100600.72;10122754;29;20107;-80
2022/11/14 01:31:37;;;;;;;54.05;24.08;;;;;;;2.93;74.75;100601.28;10125479;29;20265;-82
2022/11/14 01:37:00;;;;;;;47.35;22.85;;;;;;;2.86;74.85;100598.06;10125488;29;20127;-81
2022/11/14 01:42:21;;;;;;;51.90;23.63;;;;;;;2.79;75.43;100589.50;10112884;29;20045;-81
2022/11/14 01:47:47;;;;;;;58.90;26.08;;;;;;;2.80;75.49;100571.81;10125427;29;20040;-80
2022/11/14 01:53:10;;;;;;;52.28;24.27;;;;;;;2.78;75.70;100571.00;10127088;29;20049;-77
2022/11/14 01:58:35;;;;;;;56.80;24.60;;;;;;;2.73;75.97;100559.75;10128089;29;20080;-80
2022/11/14 02:03:57;;;;;;;55.60;25.13;;;;;;;2.69;76.08;100552.84;10131910;29;20064;-81
2022/11/14 02:09:20;;;;;;;54.20;24.55;;;;;;;2.68;76.04;100554.66;10129380;29;20056;-80
2022/11/14 02:14:45;;;;;;;49.95;23.40;;;;;;;2.66;76.31;100547.69;10122327;29;20053;-81
2022/11/14 02:20:16;;;;;;;52.22;23.23;;;;;;;2.69;76.54;100544.88;10115305;29;20132;-80
2022/11/14 02:25:38;;;;;;;51.42;24.15;;;;;;;2.73;76.26;100534.06;10142445;29;20053;-80
2022/11/14 02:31:00;;;;;;;51.25;24.13;;;;;;;2.63;76.25;100531.91;10137058;29;20060;-80
2022/11/14 02:36:22;;;;;;;55.20;24.75;;;;;;;2.56;76.38;100526.03;10128370;29;20056;-79
2022/11/14 02:41:44;;;;;;;51.33;24.02;;;;;;;2.56;76.75;100515.44;10127225;29;20071;-81
2022/11/14 02:47:05;;;;;;;56.42;25.08;;;;;;;2.53;76.84;100512.88;10125708;29;20060;-78
2022/11/14 02:52:28;;;;;;;60.25;26.02;;;;;;;2.55;77.49;100517.22;10129994;29;20052;-77
2022/11/14 02:57:49;;;;;;;55.20;25.58;;;;;;;2.60;77.36;100507.25;10133867;29;20053;-79
2022/11/14 03:03:10;;;;;;;55.53;25.30;;;;;;;2.52;77.46;100512.00;10140930;29;20037;-81
2022/11/14 03:08:33;;;;;;;56.85;25.15;;;;;;;2.53;77.58;100512.88;10150382;29;20044;-79
2022/11/14 03:13:54;;;;;;;56.70;25.02;;;;;;;2.58;77.61;100498.53;10117617;29;20045;-80
2022/11/14 03:19:15;;;;;;;52.55;23.33;;;;;;;2.60;77.20;100503.72;10122320;29;20131;-81
2022/11/14 03:24:38;;;;;;;42.40;21.05;;;;;;;2.52;76.61;100503.19;10126403;29;20056;-80
2022/11/14 03:29:59;;;;;;;49.83;21.13;;;;;;;2.38;76.32;100493.22;10120613;29;20056;-79
2022/11/14 03:35:20;;;;;;;46.90;22.55;;;;;;;2.28;77.29;100486.63;10124386;29;20053;-78
2022/11/14 03:40:43;;;;;;;44.53;23.15;;;;;;;2.29;77.24;100478.59;10117842;29;20045;-81
2022/11/14 03:46:05;;;;;;;47.67;22.17;;;;;;;2.39;77.01;100484.34;10157869;29;20045;-79
2022/11/14 03:51:27;;;;;;;35.00;16.40;;;;;;;2.42;76.33;100478.91;10159742;29;20049;-81
2022/11/14 03:56:50;;;;;;;43.67;21.42;;;;;;;2.31;75.78;100479.38;10133402;29;20531;-77
2022/11/14 04:02:11;;;;;;;40.90;20.20;;;;;;;2.26;75.86;100461.97;10103959;29;20049;-76
2022/11/14 04:07:32;;;;;;;42.67;20.27;;;;;;;2.27;75.42;100453.06;10100478;29;20061;-81
2022/11/14 04:12:57;;;;;;;44.57;20.67;;;;;;;2.25;75.40;100460.22;10113111;29;20053;-80
2022/11/14 04:18:19;;;;;;;41.15;19.42;;;;;;;2.24;75.42;100456.72;10140819;29;20053;-78
2022/11/14 04:23:41;;;;;;;45.40;21.42;;;;;;;2.15;75.53;100450.06;10135902;29;20049;-80
2022/11/14 04:29:04;;;;;;;52.17;22.38;;;;;;;2.09;75.66;100444.19;10136633;29;20546;-80
2022/11/14 04:34:27;;;;;;;46.72;22.30;;;;;;;2.04;76.12;100452.31;10139990;29;20049;-79
2022/11/14 04:39:49;;;;;;;50.00;23.02;;;;;;;1.96;76.09;100438.56;10142128;29;20056;-79
2022/11/14 04:45:13;;;;;;;52.13;23.63;;;;;;;1.92;76.56;100437.84;10160148;29;20068;-78
2022/11/14 04:50:35;;;;;;;47.92;22.48;;;;;;;1.91;76.61;100429.94;10157178;29;20048;-80
2022/11/14 04:55:57;;;;;;;60.95;25.02;;;;;;;1.90;77.20;100428.25;10146586;29;20061;-82
2022/11/14 05:01:20;;;;;;;55.88;26.70;;;;;;;1.95;77.67;100431.56;10155069;29;20064;-81
2022/11/14 05:06:41;;;;;;;59.55;25.98;;;;;;;2.06;77.85;100420.47;10138652;29;20056;-80
2022/11/14 05:12:03;;;;;;;56.07;25.03;;;;;;;2.02;78.42;100413.56;10144857;29;20061;-82
2022/11/14 05:17:26;;;;;;;66.35;27.85;;;;;;;2.17;79.18;100421.69;10142935;29;20053;-79
2022/11/14 05:22:47;;;;;;;66.57;27.30;;;;;;;2.23;78.98;100423.22;10164767;29;20044;-77
2022/11/14 05:28:09;;;;;;;61.47;28.15;;;;;;;2.33;79.16;100421.88;10158188;29;20060;-80
2022/11/14 05:33:31;;;;;;;60.65;28.20;;;;;;;2.37;79.17;100412.81;10137828;29;20052;-80
2022/11/14 05:38:53;;;;;;;53.00;25.85;;;;;;;2.32;79.05;100406.00;10127440;29;20053;-80
2022/11/14 05:44:15;;;;;;;53.20;24.42;;;;;;;2.37;78.90;100404.00;10113050;29;20045;-80
2022/11/14 05:49:38;;;;;;;55.75;25.20;;;;;;;2.32;78.94;100398.91;10113100;29;20045;-80
2022/11/14 05:54:59;;;;;;;;;;;;;;;2.29;78.69;100400.84;10115079;29;20072;-78
2022/11/14 06:00:20;;;;;;;50.42;24.30;;;;;;;2.22;78.71;100389.66;10124232;29;19912;-77
2022/11/14 06:05:43;;;;;;;47.25;22.27;;;;;;;2.21;78.43;100392.41;10165371;29;20036;-77
2022/11/14 06:11:06;;;;;;;45.95;22.40;;;;;;;2.15;78.23;100396.19;10133491;29;20057;-81
2022/11/14 06:16:28;;;;;;;49.30;23.10;;;;;;;2.12;78.49;100399.00;10120616;29;20156;-80
2022/11/14 06:21:50;;;;;;;54.30;25.98;;;;;;;2.04;78.33;100393.19;10116900;29;20052;-80
2022/11/14 06:27:11;;;;;;;54.70;25.08;;;;;;;2.04;78.72;100396.69;10114487;29;20061;-80
2022/11/14 06:32:33;;;;;;;55.63;25.63;;;;;;;2.09;78.73;100388.53;10117595;29;20494;-80
2022/11/14 06:37:55;;;;;;;50.58;22.63;;;;;;;1.92;77.55;100383.97;10126349;29;20053;-79
2022/11/14 06:43:16;;;;;;;47.53;23.77;;;;;;;1.75;77.35;100379.44;10123755;29;20057;-79
2022/11/14 06:48:38;;;;;;;51.28;23.42;;;;;;;1.82;77.71;100378.25;10118953;29;20060;-79
2022/11/14 06:54:01;;;;;;;59.57;25.77;;;;;;;1.90;78.16;100370.81;10128683;29;20049;-78
2022/11/14 06:59:22;;;;;;;63.05;26.20;;;;;;;2.02;78.78;100361.44;10129507;29;20056;-79
2022/11/14 07:04:44;;;;;;;67.22;27.10;;;;;;;2.26;80.30;100359.44;10121445;29;20076;-79
2022/11/14 07:10:07;;;;;;;84.72;30.58;;;;;;;2.51;81.89;100366.25;10128862;29;20049;-79
2022/11/14 07:15:28;;;;;;;128.85;45.80;;;;;;;3.14;81.45;100366.69;10126375;29;20060;-78
2022/11/14 07:20:49;;;;;;;42.42;21.00;;;;;;;3.37;79.68;100376.13;10130042;29;20108;-79
2022/11/14 07:26:12;;;;;;;36.20;20.58;;;;;;;3.60;78.40;100361.69;10114422;29;20088;-80
2022/11/14 07:31:34;;;;;;;34.65;19.00;;;;;;;3.94;77.45;100368.72;10131333;29;20048;-79
2022/11/14 07:36:55;;;;;;;36.22;18.80;;;;;;;4.33;76.32;100374.59;10145125;29;20052;-80
2022/11/14 07:42:18;;;;;;;38.63;20.02;;;;;;;4.73;73.59;100372.38;10124823;29;20037;-79
2022/11/14 07:47:39;;;;;;;43.35;20.63;;;;;;;4.79;72.51;100366.69;10127298;29;20049;-80
2022/11/14 07:53:00;;;;;;;43.33;22.98;;;;;;;5.04;71.88;100358.19;10126884;29;20152;-80
2022/11/14 07:58:23;;;;;;;42.25;21.55;;;;;;;5.25;70.82;100359.59;10130023;29;20080;-80
2022/11/14 08:03:44;;;;;;;42.75;22.25;;;;;;;5.55;70.10;100360.53;10129189;29;20087;-80
2022/11/14 08:09:06;;;;;;;41.92;23.23;;;;;;;5.84;69.20;100361.38;10125952;29;20135;-79
2022/11/14 08:14:29;;;;;;;44.90;22.33;;;;;;;6.09;68.53;100355.41;10132832;29;20128;-80
2022/11/14 08:19:50;;;;;;;45.60;23.30;;;;;;;6.32;67.80;100346.78;10133935;29;20419;-78
2022/11/14 08:25:12;;;;;;;40.50;22.25;;;;;;;6.50;67.00;100355.44;10125977;29;20049;-79
2022/11/14 08:30:34;;;;;;;43.90;22.70;;;;;;;6.78;66.45;100351.81;10127109;29;20060;-79
2022/11/14 08:35:59;;;;;;;41.88;23.92;;;;;;;6.92;65.86;100344.75;10123907;29;20053;-79
2022/11/14 08:41:21;;;;;;;41.70;22.77;;;;;;;7.17;65.73;100343.97;10139631;29;20057;-78
2022/11/14 08:46:43;;;;;;;36.33;21.38;;;;;;;7.61;65.00;100342.75;10137571;29;20053;-78
2022/11/14 08:52:05;;;;;;;37.72;21.83;;;;;;;7.82;63.33;100349.28;10148882;29;20052;-79
2022/11/14 08:57:26;;;;;;;40.83;22.83;;;;;;;7.90;63.78;100351.41;10142555;29;20065;-79
2022/11/14 09:02:49;;;;;;;36.75;21.02;;;;;;;7.91;63.07;100351.28;10123825;29;20049;-79
2022/11/14 09:08:10;;;;;;;34.00;20.48;;;;;;;8.31;61.87;100353.81;10126119;29;20048;-79
2022/11/14 09:13:32;;;;;;;38.40;20.13;;;;;;;8.35;61.96;100344.59;10126997;29;20048;-79
2022/11/14 09:18:55;;;;;;;35.33;19.42;;;;;;;8.66;60.93;100346.88;10123500;29;20040;-79
2022/11/14 09:24:16;;;;;;;32.72;19.23;;;;;;;8.61;60.67;100349.88;10125475;29;20060;-79
2022/11/14 09:29:38;;;;;;;32.10;20.33;;;;;;;9.14;59.76;100342.38;10130199;29;20144;-79
2022/11/14 09:35:00;;;;;;;32.40;18.38;;;;;;;9.55;58.58;100329.44;10133340;29;20407;-79
2022/11/14 09:40:21;;;;;;;31.90;18.98;;;;;;;9.83;57.78;100320.94;10124110;29;20569;-79
2022/11/14 09:45:48;;;;;;;32.22;18.10;;;;;;;10.14;57.22;100313.16;10123833;29;20040;-79
2022/11/14 09:51:17;;;;;;;30.48;19.17;;;;;;;10.55;55.61;100314.31;10153944;29;20032;-80
2022/11/14 09:56:38;;;;;;;30.67;17.85;;;;;;;10.82;55.15;100301.28;10126008;29;20048;-79
2022/11/14 10:02:10;;;;;;;28.73;17.13;;;;;;;11.17;54.20;100297.50;10120867;29;20057;-79
2022/11/14 10:07:46;;;;;;;26.45;16.95;;;;;;;11.15;54.21;100286.00;10094522;29;20484;-79
2022/11/14 10:13:21;;;;;;;26.00;16.25;;;;;;;11.34;53.59;100271.00;10082865;29;20057;-80
2022/11/14 10:18:58;;;;;;;27.27;17.00;;;;;;;11.85;52.79;100262.06;10092175;29;20045;-79
2022/11/14 10:24:37;;;;;;;26.30;16.90;;;;;;;11.84;52.85;100269.25;10097561;29;20172;-79
2022/11/14 10:30:05;;;;;;;24.48;16.52;;;;;;;12.10;51.75;100263.44;10091109;29;20052;-78
2022/11/14 10:35:31;;;;;;;24.85;17.20;;;;;;;11.95;51.52;100265.63;10094828;29;20048;-77
2022/11/14 10:41:00;;;;;;;25.13;16.70;;;;;;;13.03;50.08;100265.69;10092292;29;20045;-79
2022/11/14 10:46:26;;;;;;;22.45;15.90;;;;;;;13.12;49.48;100258.56;10086279;29;20049;-78
2022/11/14 10:51:53;;;;;;;22.80;15.35;;;;;;;13.50;48.21;100270.31;10079554;29;20045;-78
2022/11/14 10:57:18;;;;;;;22.98;15.65;;;;;;;13.91;47.91;100243.88;10084161;29;20053;-80
2022/11/14 11:02:48;;;;;;;22.23;16.25;;;;;;;14.55;46.34;100237.53;10104871;29;20056;-81
2022/11/14 11:14:17;;;;;;;18.52;14.10;;;;;;;14.75;45.28;100237.38;10118808;29;20052;-81
2022/11/14 11:19:39;;;;;;;19.67;13.43;;;;;;;14.68;45.94;100237.16;10123222;29;20049;-80
2022/11/14 11:25:01;;;;;;;20.58;14.13;;;;;;;14.27;46.19;100234.00;10114315;29;20049;-81
2022/11/14 11:30:23;;;;;;;19.60;14.27;;;;;;;14.86;45.25;100217.38;10123447;29;20135;-80
2022/11/14 11:35:48;;;;;;;19.55;14.02;;;;;;;14.26;45.94;100208.00;10125315;29;20048;-83
2022/11/14 11:41:20;;;;;;;17.48;13.98;;;;;;;15.03;44.76;100227.34;10128752;29;20061;-80
2022/11/14 11:47:08;;;;;;;18.63;13.77;;;;;;;16.07;42.80;100224.56;10113970;29;20068;-81
2022/11/14 11:52:34;;;;;;;15.98;11.77;;;;;;;15.05;44.83;100218.03;10123994;29;20049;-81
2022/11/14 11:58:02;;;;;;;18.98;11.48;;;;;;;14.16;45.49;100216.16;10130726;29;20088;-80
2022/11/14 12:03:26;;;;;;;14.90;12.25;;;;;;;14.02;46.27;100224.78;10152159;29;20135;-80
2022/11/14 12:08:57;;;;;;;16.02;12.02;;;;;;;13.85;46.26;100195.88;10105058;29;20045;-80
2022/11/14 12:14:36;;;;;;;18.48;12.43;;;;;;;13.03;47.75;100202.81;10123982;29;20049;-80
2022/11/14 12:20:13;;;;;;;15.18;10.27;;;;;;;13.19;48.00;100208.47;10153337;29;20052;-79
2022/11/14 12:25:43;;;;;;;19.55;11.85;;;;;;;13.51;47.45;100196.44;10164657;29;20053;-79
2022/11/14 12:31:10;;;;;;;19.95;11.98;;;;;;;13.48;47.36;100177.88;10126006;29;20060;-79
2022/11/14 12:36:35;;;;;;;15.20;11.23;;;;;;;13.51;47.78;100182.13;10123919;29;20040;-79
2022/11/14 12:42:04;;;;;;;17.25;11.77;;;;;;;13.79;47.47;100173.00;10131830;29;20056;-80
2022/11/14 12:47:26;;;;;;;15.95;11.02;;;;;;;14.00;47.32;100180.88;10147860;29;20053;-79
2022/11/14 12:52:52;;;;;;;15.10;11.00;;;;;;;14.19;46.74;100168.25;10124821;29;20048;-79
2022/11/14 12:58:19;;;;;;;14.40;10.82;;;;;;;14.06;46.63;100163.19;10122770;29;20085;-80
2022/11/14 13:03:54;;;;;;;14.02;10.10;;;;;;;14.42;46.73;100147.03;10119825;29;20048;-79
2022/11/14 13:09:35;;;;;;;14.20;10.65;;;;;;;14.05;46.79;100138.06;10119114;29;20053;-79
2022/11/14 13:26:39;;;;;;;14.55;9.63;;;;;;;14.32;46.79;100128.19;10122360;29;20045;-79
2022/11/14 13:32:00;;;;;;;15.00;10.82;;;;;;;14.35;48.47;100131.41;10101945;29;20056;-80
2022/11/14 13:37:43;;;;;;;13.80;10.32;;;;;;;13.74;49.72;100134.84;10121099;29;20522;-79
2022/11/14 13:43:14;;;;;;;;;;;;;;;13.77;49.90;100117.47;10120446;29;20227;-78
2022/11/14 13:49:00;;;;;;;15.73;10.40;;;;;;;13.42;50.62;100103.75;10119469;29;20029;-79
2022/11/14 13:54:22;;;;;;;14.18;9.82;;;;;;;13.55;50.19;100110.66;10109162;29;20049;-79
2022/11/14 14:00:10;;;;;;;16.45;10.75;;;;;;;13.39;50.96;100098.66;10113478;29;20053;-79
2022/11/14 14:05:56;;;;;;;14.95;11.13;;;;;;;13.42;51.00;100095.66;10129445;29;20062;-78
2022/11/14 14:11:47;;;;;;;17.00;11.93;;;;;;;13.32;51.05;100075.09;10160340;29;20025;-77
2022/11/14 14:17:16;;;;;;;14.00;10.77;;;;;;;13.43;51.23;100056.03;10137688;29;20045;-78
2022/11/14 14:22:43;;;;;;;18.80;12.10;;;;;;;13.27;51.17;100062.06;10127961;29;20079;-78
2022/11/14 14:28:15;;;;;;;15.90;11.95;;;;;;;12.95;51.83;100060.66;10130494;29;20141;-77
2022/11/14 14:33:42;;;;;;;17.67;12.10;;;;;;;12.35;53.00;100071.72;10136756;29;20506;-78
2022/11/14 14:39:17;;;;;;;19.08;11.23;;;;;;;12.30;53.49;100059.66;10133031;29;20135;-77
2022/11/14 14:44:39;;;;;;;16.45;11.25;;;;;;;12.32;53.37;100071.16;10135062;29;20068;-78
2022/11/14 14:50:04;;;;;;;15.23;11.53;;;;;;;11.84;54.40;100064.72;10142577;29;20148;-79
2022/11/14 14:55:28;;;;;;;19.83;13.85;;;;;;;11.17;56.19;100052.00;10126216;29;20487;-78
2022/11/14 15:00:52;;;;;;;17.45;11.18;;;;;;;11.07;56.58;100038.47;10130345;29;20068;-78
2022/11/14 15:06:28;;;;;;;16.63;12.30;;;;;;;10.73;57.51;100041.47;10130869;29;20048;-78
2022/11/14 15:11:52;;;;;;;17.58;12.75;;;;;;;10.22;58.92;100042.25;10134060;29;20056;-79
2022/11/14 15:17:14;;;;;;;18.30;12.48;;;;;;;9.84;60.51;100048.16;10130023;29;20053;-79
2022/11/14 15:22:38;;;;;;;18.15;13.23;;;;;;;9.78;60.97;100051.34;10132381;29;20803;-79
2022/11/14 15:27:59;;;;;;;19.23;13.38;;;;;;;9.73;61.21;100063.28;10138835;29;20045;-77
2022/11/14 15:33:27;;;;;;;19.02;12.82;;;;;;;9.65;61.45;100060.41;10126270;29;20146;-78
2022/11/14 15:39:02;;;;;;;22.13;13.88;;;;;;;9.48;61.96;100043.00;10129930;29;20040;-78
2022/11/14 15:44:31;;;;;;;21.55;13.82;;;;;;;9.44;62.08;100046.09;10130935;29;20099;-78
2022/11/14 15:49:58;;;;;;;17.30;11.82;;;;;;;9.27;62.60;100047.47;10132082;29;20518;-79
2022/11/14 15:55:22;;;;;;;22.98;14.15;;;;;;;9.16;63.12;100026.00;10133854;29;20406;-78
2022/11/14 16:00:46;;;;;;;38.70;25.10;;;;;;;9.05;63.41;100030.44;10121795;29;20049;-79
2022/11/14 16:06:10;;;;;;;19.70;15.38;;;;;;;8.91;63.61;100011.06;10122844;29;20052;-79
2022/11/14 16:11:33;;;;;;;18.92;12.45;;;;;;;8.69;64.40;100015.44;10130494;29;20057;-80
2022/11/14 16:16:54;;;;;;;19.42;13.20;;;;;;;8.57;64.91;100000.34;10085940;29;20517;-79
2022/11/14 16:22:17;;;;;;;20.67;13.65;;;;;;;8.51;64.97;99990.13;10106955;29;20053;-79
2022/11/14 16:27:40;;;;;;;20.52;13.68;;;;;;;8.46;64.95;99989.66;10079839;29;20127;-80
2022/11/14 16:33:01;;;;;;;;;;;;;;;8.36;65.11;99976.97;10095529;29;20037;-80
2022/11/14 16:38:23;;;;;;;22.20;14.38;;;;;;;8.33;65.60;100003.94;10142868;29;19927;-79
2022/11/14 16:43:45;;;;;;;20.42;14.23;;;;;;;8.25;65.54;99994.81;10096360;29;20048;-79
2022/11/14 16:49:07;;;;;;;25.38;15.43;;;;;;;8.20;65.54;99980.94;10086109;29;20049;-80
2022/11/14 16:54:29;;;;;;;23.75;15.10;;;;;;;8.03;65.74;99985.75;10087629;29;20399;-80
2022/11/14 16:59:51;;;;;;;23.70;15.93;;;;;;;7.93;66.47;99982.94;10088116;29;20056;-80
2022/11/14 17:05:13;;;;;;;;;;;;;;;7.89;66.70;99980.63;10082514;29;20052;-79
2022/11/14 17:10:39;;;;;;;21.90;14.48;;;;;;;7.86;66.87;99975.50;10087418;29;19927;-79
2022/11/14 17:16:03;;;;;;;21.60;14.77;;;;;;;7.81;67.39;99985.69;10082837;29;20057;-79
2022/11/14 17:21:25;;;;;;;23.85;13.23;;;;;;;7.95;67.67;99972.13;10083728;29;20049;-80
2022/11/14 17:26:46;;;;;;;20.73;14.60;;;;;;;8.09;67.13;99969.25;10086232;29;20048;-79
2022/11/14 17:32:09;;;;;;;22.23;14.00;;;;;;;8.11;67.12;99978.00;10086423;29;20053;-78
2022/11/14 17:37:31;;;;;;;20.17;13.02;;;;;;;7.98;67.70;99979.06;10084361;29;20060;-78
2022/11/14 17:42:53;;;;;;;22.75;14.68;;;;;;;7.85;68.39;99971.97;10089713;29;20194;-78
2022/11/14 17:48:16;;;;;;;23.57;15.00;;;;;;;7.75;68.96;99978.16;10090945;29;20044;-78
2022/11/14 17:53:38;;;;;;;22.80;14.63;;;;;;;7.73;69.25;99967.53;10090014;29;20064;-79
2022/11/14 17:58:59;;;;;;;23.05;14.77;;;;;;;7.69;69.43;99963.41;10086960;29;20124;-78
2022/11/14 18:04:22;;;;;;;24.50;15.80;;;;;;;7.61;69.86;99952.44;10096999;29;20486;-81
2022/11/14 18:09:43;;;;;;;24.90;15.18;;;;;;;7.60;69.96;99956.09;10089298;29;20060;-80
2022/11/14 18:15:06;;;;;;;23.63;15.18;;;;;;;7.53;69.83;99952.19;10087152;29;20537;-81
2022/11/14 18:20:28;;;;;;;26.60;16.08;;;;;;;7.41;70.06;99953.97;10091509;29;20156;-79
2022/11/14 18:25:50;;;;;;;22.83;15.60;;;;;;;7.44;70.51;99943.03;10105491;29;20052;-79
2022/11/14 18:31:13;;;;;;;23.80;14.05;;;;;;;7.66;70.03;99935.09;10116627;29;20060;-78
2022/11/14 18:36:36;;;;;;;25.45;15.80;;;;;;;7.78;69.54;99940.47;10105028;29;20057;-80
2022/11/14 18:41:59;;;;;;;22.73;14.98;;;;;;;7.90;69.34;99934.19;10087133;29;20073;-80
2022/11/14 18:47:20;;;;;;;23.45;15.88;;;;;;;7.94;69.03;99925.81;10099906;29;20049;-80
2022/11/14 18:52:43;;;;;;;22.52;14.93;;;;;;;8.04;68.56;99909.91;10127205;29;20101;-79
2022/11/14 18:58:04;;;;;;;23.25;14.27;;;;;;;8.01;68.89;99901.25;10104022;29;20586;-79
2022/11/14 19:03:27;;;;;;;26.60;16.35;;;;;;;8.14;68.46;99900.16;10091072;29;20130;-79
2022/11/14 19:08:50;;;;;;;21.88;14.05;;;;;;;8.21;68.43;99892.53;10093447;29;20045;-79
2022/11/14 19:14:12;;;;;;;40.83;24.45;;;;;;;8.25;68.26;99885.09;10087395;29;20060;-79
2022/11/14 19:19:33;;;;;;;25.92;17.38;;;;;;;8.35;67.90;99886.06;10089196;29;20048;-81
2022/11/14 19:24:56;;;;;;;21.08;13.70;;;;;;;8.32;68.17;99892.53;10088472;29;20049;-80
2022/11/14 19:30:18;;;;;;;25.23;15.38;;;;;;;8.29;68.02;99884.75;10100270;29;20041;-80
2022/11/14 19:35:40;;;;;;;24.07;14.40;;;;;;;8.26;68.39;99884.16;10142575;29;20040;-80
2022/11/14 19:41:08;;;;;;;19.40;12.75;;;;;;;8.38;68.17;99885.84;10082564;29;20056;-79
2022/11/14 19:46:29;;;;;;;21.05;13.75;;;;;;;8.35;68.40;99884.25;10123156;29;20495;-79
2022/11/14 19:51:51;;;;;;;20.48;14.43;;;;;;;8.34;68.45;99876.34;10105315;29;20048;-79
2022/11/14 19:57:13;;;;;;;22.27;14.65;;;;;;;8.34;68.49;99876.34;10088560;29;20061;-80
2022/11/14 20:02:38;;;;;;;;;;;;;;;8.24;68.87;99862.00;10090785;29;20056;-80
2022/11/14 20:07:59;;;;;;;23.17;14.18;;;;;;;8.28;68.80;99872.34;10084942;29;19927;-79
2022/11/14 20:13:22;;;;;;;21.10;13.13;;;;;;;8.23;69.14;99860.28;10097458;29;20056;-79
2022/11/14 20:18:47;;;;;;;26.08;15.02;;;;;;;8.37;68.58;99855.53;10096600;29;20104;-79
2022/11/14 20:24:20;;;;;;;19.98;13.10;;;;;;;8.35;68.79;99864.66;10097850;29;20079;-80
2022/11/14 20:29:43;;;;;;;16.58;11.73;;;;;;;8.34;68.86;99863.81;10089861;29;20442;-79
2022/11/14 20:35:05;;;;;;;19.00;12.82;;;;;;;8.30;69.20;99865.03;10112481;29;20053;-79
2022/11/14 20:40:27;;;;;;;19.20;12.30;;;;;;;8.47;68.90;99876.25;10085455;29;20041;-79
2022/11/14 20:45:57;;;;;;;19.85;12.65;;;;;;;8.38;69.06;99867.09;10110917;29;20305;-80
2022/11/14 20:51:20;;;;;;;19.90;12.50;;;;;;;8.42;69.17;99873.91;10088330;29;21298;-80
2022/11/14 20:56:42;;;;;;;17.73;12.73;;;;;;;8.47;69.00;99878.91;10116086;29;20056;-79
2022/11/14 21:02:04;;;;;;;15.68;11.32;;;;;;;8.51;68.97;99883.91;10122610;29;20052;-79
2022/11/14 21:07:26;;;;;;;17.55;11.32;;;;;;;8.50;69.11;99876.88;10096859;29;20139;-79
2022/11/14 21:13:54;;;;;;;17.40;11.73;;;;;;;8.48;69.21;99881.47;10094290;29;20498;-79
2022/11/14 21:18:31;;;;;;;16.67;11.15;;;;;;;8.44;69.45;99896.03;10094462;29;20751;-80
2022/11/14 21:23:54;;;;;;;15.30;9.65;;;;;;;8.65;68.20;99890.81;10095188;29;20052;-80
2022/11/14 21:29:16;;;;;;;14.60;10.23;;;;;;;8.89;65.95;99893.34;10089084;29;20052;-79
2022/11/14 21:34:38;;;;;;;13.32;8.60;;;;;;;9.12;64.63;99890.59;10092038;29;20041;-80
2022/11/14 21:40:00;;;;;;;10.70;8.32;;;;;;;8.92;64.73;99889.56;10093568;29;20045;-80
2022/11/14 21:45:21;;;;;;;13.32;9.70;;;;;;;8.84;64.21;99888.34;10093224;29;20116;-80
2022/11/14 21:50:43;;;;;;;15.98;10.07;;;;;;;8.83;63.90;99881.31;10091713;29;20515;-80
2022/11/14 21:56:10;;;;;;;12.90;8.75;;;;;;;8.86;63.59;99890.91;10078491;29;20048;-80
2022/11/14 22:07:13;;;;;;;12.35;9.57;;;;;;;8.74;63.74;99887.41;10087668;29;20048;-80
2022/11/14 22:12:35;;;;;;;13.60;10.02;;;;;;;8.48;64.49;99902.06;10084054;29;20506;-79
2022/11/14 22:17:56;;;;;;;14.93;9.50;;;;;;;8.38;64.64;99909.91;10087622;29;20140;-79
2022/11/14 22:23:19;;;;;;;13.07;9.43;;;;;;;8.42;64.34;99906.03;10078359;29;20434;-78
2022/11/14 22:28:40;;;;;;;;;;;;;;;8.32;64.79;99903.22;10086956;29;20048;-79
2022/11/14 22:34:02;;;;;;;9.63;7.50;;;;;;;8.17;64.71;99904.44;10083114;29;19927;-78
2022/11/14 22:39:25;;;;;;;11.82;8.40;;;;;;;8.18;64.77;99911.50;10090735;29;20048;-79
2022/11/14 22:44:46;;;;;;;13.75;9.75;;;;;;;8.26;64.15;99914.41;10107788;29;20036;-79
2022/11/14 22:50:08;;;;;;;12.32;8.98;;;;;;;7.98;65.02;99922.88;10105128;29;20048;-79
2022/11/14 22:55:31;;;;;;;12.07;8.63;;;;;;;8.11;64.61;99920.97;10149902;29;20045;-78
2022/11/14 23:00:53;;;;;;;10.90;7.90;;;;;;;8.03;64.91;99915.34;10093954;29;20052;-79
2022/11/14 23:06:18;;;;;;;10.77;7.78;;;;;;;8.22;64.85;99930.81;10088415;29;20087;-79
2022/11/14 23:11:41;;;;;;;9.48;6.78;;;;;;;8.30;64.56;99923.06;10075861;29;20052;-79
2022/11/14 23:17:02;;;;;;;10.23;7.45;;;;;;;8.52;64.22;99914.19;10080530;29;20112;-79
2022/11/14 23:22:23;;;;;;;10.18;6.80;;;;;;;8.57;64.00;99915.53;10081857;29;20057;-79
2022/11/14 23:27:46;;;;;;;10.02;7.15;;;;;;;8.67;64.32;99909.47;10087100;29;20044;-79
2022/11/14 23:33:07;;;;;;;;;;;;;;;8.78;64.44;99914.78;10087697;29;20045;-79
2022/11/14 23:38:30;;;;;;;11.82;7.35;;;;;;;8.81;64.69;99910.03;10084666;29;19966;-78
2022/11/14 23:43:52;;;;;;;11.93;7.73;;;;;;;8.91;64.55;99895.88;10075606;29;20297;-79
2022/11/14 23:49:14;;;;;;;9.40;6.80;;;;;;;8.96;64.75;99891.00;10064202;29;20682;-78
2022/11/14 23:54:35;;;;;;;8.15;6.20;;;;;;;8.93;65.02;99896.63;10068013;29;20053;-79
2022/11/14 23:59:58;;;;;;;12.05;6.55;;;;;;;9.02;65.04;99898.53;10081527;29;20060;-79
